createdAt,value
2017-08-30T00:01:25.445Z,15.16
2017-08-30T00:03:51.598Z,15.28
2017-08-30T00:06:17.769Z,15.23
2017-08-30T00:08:43.941Z,15.09
2017-08-30T00:11:10.109Z,15.20
2017-08-30T00:13:36.283Z,15.31
2017-08-30T00:16:02.454Z,15.23
2017-08-30T00:18:28.621Z,15.34
2017-08-30T00:20:54.788Z,15.18
2017-08-30T00:23:20.962Z,14.99
2017-08-30T00:25:47.123Z,14.79
2017-08-30T00:28:13.280Z,14.72
2017-08-30T00:30:39.440Z,14.58
2017-08-30T00:33:05.600Z,14.56
2017-08-30T00:35:31.769Z,14.56
2017-08-30T00:37:57.953Z,14.50
2017-08-30T00:40:24.111Z,14.59
2017-08-30T00:42:50.286Z,14.59
2017-08-30T00:45:16.456Z,14.53
2017-08-30T00:47:42.613Z,14.48
2017-08-30T00:50:08.786Z,14.46
2017-08-30T00:52:34.951Z,14.50
2017-08-30T00:55:01.103Z,14.61
2017-08-30T00:57:27.264Z,14.81
2017-08-30T00:59:53.449Z,14.85
2017-08-30T01:02:19.599Z,14.87
2017-08-30T01:04:45.762Z,14.82
2017-08-30T01:07:11.940Z,14.81
2017-08-30T01:09:38.120Z,14.85
2017-08-30T01:12:04.281Z,14.84
2017-08-30T01:14:30.460Z,14.84
2017-08-30T01:16:56.620Z,14.90
2017-08-30T01:19:22.800Z,14.94
2017-08-30T01:21:48.983Z,14.99
2017-08-30T01:24:15.150Z,15.01
2017-08-30T01:26:41.334Z,15.02
2017-08-30T01:29:07.491Z,14.97
2017-08-30T01:31:33.659Z,15.02
2017-08-30T01:33:59.836Z,15.03
2017-08-30T01:36:26.012Z,14.92
2017-08-30T01:38:52.194Z,14.74
2017-08-30T01:41:18.381Z,14.64
2017-08-30T01:43:44.545Z,14.51
2017-08-30T01:46:10.710Z,14.50
2017-08-30T01:48:36.893Z,14.49
2017-08-30T01:51:03.067Z,14.47
2017-08-30T01:53:29.241Z,14.50
2017-08-30T01:55:55.408Z,14.59
2017-08-30T01:58:21.561Z,14.57
2017-08-30T02:00:47.710Z,14.46
2017-08-30T02:03:13.864Z,14.43
2017-08-30T02:05:40.043Z,14.47
2017-08-30T02:08:06.209Z,14.54
2017-08-30T02:10:32.372Z,14.57
2017-08-30T02:12:58.528Z,14.61
2017-08-30T02:15:24.684Z,14.63
2017-08-30T02:17:50.852Z,14.71
2017-08-30T02:20:17.000Z,14.62
2017-08-30T02:22:43.145Z,14.71
2017-08-30T02:25:09.322Z,14.70
2017-08-30T02:27:35.491Z,14.75
2017-08-30T02:30:01.657Z,14.78
2017-08-30T02:32:27.834Z,14.78
2017-08-30T02:34:54.020Z,14.79
2017-08-30T02:37:20.176Z,14.82
2017-08-30T02:39:46.340Z,14.87
2017-08-30T02:42:12.490Z,14.80
2017-08-30T02:44:38.670Z,14.75
2017-08-30T02:47:04.841Z,14.79
2017-08-30T02:49:31.003Z,14.84
2017-08-30T02:51:57.166Z,14.79
2017-08-30T02:54:23.331Z,14.86
2017-08-30T02:56:49.497Z,14.78
2017-08-30T02:59:15.661Z,14.82
2017-08-30T03:01:41.819Z,14.86
2017-08-30T03:04:07.993Z,14.80
2017-08-30T03:06:34.149Z,14.76
2017-08-30T03:09:00.318Z,14.73
2017-08-30T03:11:26.488Z,14.70
2017-08-30T03:13:52.666Z,14.78
2017-08-30T03:16:18.832Z,14.84
2017-08-30T03:18:44.979Z,14.88
2017-08-30T03:21:11.131Z,14.89
2017-08-30T03:23:37.282Z,14.85
2017-08-30T03:26:03.448Z,14.85
2017-08-30T03:28:29.620Z,14.84
2017-08-30T03:30:55.794Z,14.79
2017-08-30T03:33:21.952Z,14.79
2017-08-30T03:35:48.128Z,14.72
2017-08-30T03:38:14.288Z,14.69
2017-08-30T03:40:40.462Z,14.66
2017-08-30T03:43:06.624Z,14.63
2017-08-30T03:45:32.784Z,14.60
2017-08-30T03:47:58.963Z,14.60
2017-08-30T03:50:25.143Z,14.58
2017-08-30T03:52:51.335Z,14.53
2017-08-30T03:55:17.506Z,14.42
2017-08-30T03:57:43.678Z,14.27
2017-08-30T04:00:10.911Z,14.31
2017-08-30T04:02:37.089Z,14.37
2017-08-30T04:05:03.234Z,14.41
2017-08-30T04:07:29.403Z,14.34
2017-08-30T04:09:55.567Z,14.26
2017-08-30T04:12:21.737Z,14.30
2017-08-30T04:14:48.841Z,14.33
2017-08-30T04:17:15.013Z,14.37
2017-08-30T04:19:41.174Z,14.42
2017-08-30T04:22:07.341Z,14.52
2017-08-30T04:24:33.519Z,14.60
2017-08-30T04:26:59.693Z,14.65
2017-08-30T04:29:25.867Z,14.65
2017-08-30T04:31:52.027Z,14.92
2017-08-30T04:34:18.219Z,15.46
2017-08-30T04:36:44.396Z,16.26
2017-08-30T04:39:10.565Z,17.08
2017-08-30T04:41:36.733Z,17.64
2017-08-30T04:44:02.900Z,18.17
2017-08-30T04:46:29.085Z,18.23
2017-08-30T04:48:55.256Z,18.26
2017-08-30T04:51:21.406Z,18.74
2017-08-30T04:53:47.569Z,18.95
2017-08-30T04:56:13.733Z,19.41
2017-08-30T04:58:39.888Z,19.57
2017-08-30T05:01:06.040Z,19.75
2017-08-30T05:03:32.195Z,19.56
2017-08-30T05:05:58.358Z,19.89
2017-08-30T05:08:24.540Z,20.09
2017-08-30T05:10:50.698Z,20.02
2017-08-30T05:13:16.860Z,20.50
2017-08-30T05:15:43.011Z,20.65
2017-08-30T05:18:09.200Z,20.37
2017-08-30T05:20:35.375Z,20.97
2017-08-30T05:23:01.541Z,22.09
2017-08-30T05:25:27.697Z,22.74
2017-08-30T05:27:53.865Z,22.58
2017-08-30T05:30:20.051Z,23.39
2017-08-30T05:32:46.198Z,23.66
2017-08-30T05:35:12.367Z,23.06
2017-08-30T05:37:38.533Z,21.54
2017-08-30T05:40:04.707Z,21.52
2017-08-30T05:42:30.864Z,20.24
2017-08-30T05:44:57.036Z,20.83
2017-08-30T05:47:23.192Z,21.11
2017-08-30T05:49:49.341Z,21.08
2017-08-30T05:52:15.498Z,21.20
2017-08-30T05:54:41.647Z,21.11
2017-08-30T05:57:07.805Z,21.39
2017-08-30T05:59:33.973Z,20.81
2017-08-30T06:02:00.134Z,21.11
2017-08-30T06:04:26.316Z,21.61
2017-08-30T06:06:52.482Z,21.91
2017-08-30T06:09:18.648Z,21.95
2017-08-30T06:11:44.811Z,21.87
2017-08-30T06:14:10.963Z,22.30
2017-08-30T06:16:37.126Z,22.96
2017-08-30T06:19:03.296Z,22.37
2017-08-30T06:21:29.446Z,23.42
2017-08-30T06:23:55.610Z,23.75
2017-08-30T06:26:21.772Z,23.95
2017-08-30T06:28:47.943Z,24.60
2017-08-30T06:31:14.094Z,24.78
2017-08-30T06:33:40.267Z,24.51
2017-08-30T06:36:06.444Z,23.97
2017-08-30T06:38:32.592Z,24.48
2017-08-30T06:40:58.738Z,25.08
2017-08-30T06:43:24.886Z,25.43
2017-08-30T06:45:51.055Z,25.99
2017-08-30T06:48:17.229Z,26.04
2017-08-30T06:50:43.467Z,26.00
2017-08-30T06:53:09.616Z,26.27
2017-08-30T06:55:35.789Z,26.98
2017-08-30T06:58:01.948Z,27.45
2017-08-30T07:00:28.104Z,27.05
2017-08-30T07:02:54.255Z,26.68
2017-08-30T07:05:20.419Z,26.70
2017-08-30T07:07:46.566Z,26.75
2017-08-30T07:10:12.729Z,27.57
2017-08-30T07:12:38.899Z,27.23
2017-08-30T07:15:05.053Z,27.33
2017-08-30T07:17:31.202Z,27.13
2017-08-30T07:19:57.359Z,27.50
2017-08-30T07:22:23.530Z,26.85
2017-08-30T07:24:49.684Z,27.81
2017-08-30T07:27:15.856Z,27.44
2017-08-30T07:29:42.012Z,26.62
2017-08-30T07:32:08.195Z,25.98
2017-08-30T07:34:34.362Z,25.42
2017-08-30T07:37:00.657Z,25.97
2017-08-30T07:39:26.819Z,25.76
2017-08-30T07:41:52.962Z,26.06
2017-08-30T07:44:19.147Z,26.68
2017-08-30T07:46:45.328Z,27.20
2017-08-30T07:49:11.528Z,27.67
2017-08-30T07:51:37.703Z,27.60
2017-08-30T07:54:03.867Z,26.80
2017-08-30T07:56:30.032Z,26.60
2017-08-30T07:58:56.210Z,27.44
2017-08-30T08:01:22.386Z,27.33
2017-08-30T08:03:48.538Z,27.68
2017-08-30T08:06:14.709Z,27.03
2017-08-30T08:08:40.883Z,27.81
2017-08-30T08:11:07.040Z,27.98
2017-08-30T08:13:33.211Z,28.11
2017-08-30T08:15:59.378Z,28.27
2017-08-30T08:18:25.548Z,28.22
2017-08-30T08:20:51.722Z,28.93
2017-08-30T08:23:17.871Z,28.45
2017-08-30T08:25:44.022Z,27.33
2017-08-30T08:28:10.189Z,26.46
2017-08-30T08:30:36.380Z,25.88
2017-08-30T08:33:02.540Z,26.41
2017-08-30T08:35:28.686Z,26.47
2017-08-30T08:37:54.860Z,26.59
2017-08-30T08:40:21.019Z,26.10
2017-08-30T08:42:47.168Z,26.02
2017-08-30T08:45:13.346Z,26.83
2017-08-30T08:47:39.532Z,28.36
2017-08-30T08:50:05.698Z,29.17
2017-08-30T08:52:31.859Z,28.13
2017-08-30T08:54:58.004Z,27.28
2017-08-30T08:57:24.155Z,26.77
2017-08-30T08:59:50.324Z,26.67
2017-08-30T09:02:16.573Z,26.20
2017-08-30T09:04:42.733Z,26.55
2017-08-30T09:07:08.909Z,26.03
2017-08-30T09:09:35.064Z,26.42
2017-08-30T09:12:01.239Z,26.02
2017-08-30T09:14:27.385Z,25.57
2017-08-30T09:16:53.550Z,25.28
2017-08-30T09:19:19.699Z,26.17
2017-08-30T09:21:45.877Z,27.45
2017-08-30T09:24:12.036Z,28.82
2017-08-30T09:26:38.213Z,29.28
2017-08-30T09:29:04.376Z,29.59
2017-08-30T09:31:30.546Z,29.28
2017-08-30T09:33:56.699Z,27.93
2017-08-30T09:36:22.864Z,27.09
2017-08-30T09:38:49.051Z,27.34
2017-08-30T09:41:15.203Z,28.55
2017-08-30T09:43:41.365Z,29.41
2017-08-30T09:46:07.523Z,29.58
2017-08-30T09:48:33.687Z,29.22
2017-08-30T09:50:59.866Z,29.57
2017-08-30T09:53:26.012Z,30.36
2017-08-30T09:55:52.179Z,30.64
2017-08-30T09:58:18.392Z,30.83
2017-08-30T10:00:44.542Z,29.79
2017-08-30T10:03:10.723Z,29.58
2017-08-30T10:05:36.914Z,29.92
2017-08-30T10:08:03.073Z,29.65
2017-08-30T10:10:29.230Z,29.38
2017-08-30T10:12:55.407Z,29.99
2017-08-30T10:15:21.587Z,30.18
2017-08-30T10:17:47.745Z,30.03
2017-08-30T10:20:13.893Z,30.19
2017-08-30T10:22:40.057Z,30.33
2017-08-30T10:25:06.216Z,30.63
2017-08-30T10:27:32.390Z,27.76
2017-08-30T10:29:58.549Z,28.45
2017-08-30T10:32:24.718Z,28.65
2017-08-30T10:34:50.878Z,28.05
2017-08-30T10:37:17.044Z,29.30
2017-08-30T10:39:43.218Z,30.16
2017-08-30T10:42:09.381Z,30.22
2017-08-30T10:44:35.545Z,30.58
2017-08-30T10:47:01.705Z,30.93
2017-08-30T10:49:27.859Z,31.09
2017-08-30T10:51:54.020Z,31.31
2017-08-30T10:54:20.195Z,32.03
2017-08-30T10:56:46.366Z,31.25
2017-08-30T10:59:12.535Z,30.89
2017-08-30T11:01:38.686Z,31.82
2017-08-30T11:04:04.838Z,30.85
2017-08-30T11:06:30.983Z,30.17
2017-08-30T11:08:57.139Z,28.90
2017-08-30T11:11:23.297Z,27.66
2017-08-30T11:13:49.456Z,27.36
2017-08-30T11:16:15.617Z,27.64
2017-08-30T11:18:41.788Z,28.24
2017-08-30T11:21:07.951Z,29.21
2017-08-30T11:23:38.052Z,30.10
2017-08-30T11:26:04.224Z,30.76
2017-08-30T11:28:30.391Z,30.92
2017-08-30T11:30:56.556Z,32.42
2017-08-30T11:33:22.728Z,32.03
2017-08-30T11:35:48.898Z,30.95
2017-08-30T11:38:15.062Z,30.67
2017-08-30T11:40:41.229Z,29.89
2017-08-30T11:43:07.393Z,28.73
2017-08-30T11:45:33.549Z,27.84
2017-08-30T11:47:59.706Z,27.35
2017-08-30T11:50:25.876Z,27.14
2017-08-30T11:52:52.045Z,26.97
2017-08-30T11:55:18.210Z,26.69
2017-08-30T11:57:44.371Z,26.77
2017-08-30T12:00:10.552Z,26.73
2017-08-30T12:02:36.711Z,28.63
2017-08-30T12:05:02.877Z,30.18
2017-08-30T12:07:29.040Z,30.48
2017-08-30T12:09:55.207Z,31.12
2017-08-30T12:12:21.364Z,30.81
2017-08-30T12:14:47.547Z,30.61
2017-08-30T12:17:13.711Z,31.89
2017-08-30T12:19:39.869Z,32.50
2017-08-30T12:22:06.028Z,32.15
2017-08-30T12:24:32.190Z,32.96
2017-08-30T12:26:58.410Z,33.83
2017-08-30T12:29:24.563Z,33.80
2017-08-30T12:31:50.714Z,33.90
2017-08-30T12:34:16.877Z,33.16
2017-08-30T12:36:43.021Z,32.66
2017-08-30T12:39:09.178Z,32.91
2017-08-30T12:41:35.352Z,32.33
2017-08-30T12:44:01.541Z,33.21
2017-08-30T12:46:27.704Z,33.59
2017-08-30T12:48:53.877Z,34.69
2017-08-30T12:51:20.048Z,35.21
2017-08-30T12:53:46.213Z,35.23
2017-08-30T12:56:12.382Z,35.25
2017-08-30T12:58:38.539Z,34.96
2017-08-30T13:01:04.698Z,33.12
2017-08-30T13:03:30.896Z,33.14
2017-08-30T13:05:57.059Z,32.94
2017-08-30T13:08:23.216Z,33.16
2017-08-30T13:10:49.401Z,33.75
2017-08-30T13:13:15.586Z,32.55
2017-08-30T13:15:41.747Z,32.72
2017-08-30T13:18:07.902Z,32.44
2017-08-30T13:20:34.076Z,32.41
2017-08-30T13:23:00.237Z,32.00
2017-08-30T13:25:26.448Z,32.03
2017-08-30T13:27:52.608Z,32.39
2017-08-30T13:30:18.774Z,32.68
2017-08-30T13:32:44.971Z,32.00
2017-08-30T13:35:11.147Z,31.64
2017-08-30T13:37:37.295Z,30.15
2017-08-30T13:40:03.455Z,28.89
2017-08-30T13:42:29.598Z,28.58
2017-08-30T13:44:55.763Z,29.81
2017-08-30T13:47:21.939Z,30.96
2017-08-30T13:49:48.119Z,31.35
2017-08-30T13:52:14.275Z,31.28
2017-08-30T13:54:40.455Z,32.00
2017-08-30T13:57:06.626Z,31.74
2017-08-30T13:59:32.796Z,30.55
2017-08-30T14:01:58.964Z,30.36
2017-08-30T14:04:25.132Z,31.39
2017-08-30T14:06:51.328Z,31.58
2017-08-30T14:09:17.523Z,31.56
2017-08-30T14:11:43.696Z,31.48
2017-08-30T14:14:09.857Z,30.94
2017-08-30T14:16:36.024Z,31.95
2017-08-30T14:19:02.183Z,32.07
2017-08-30T14:21:28.352Z,31.77
2017-08-30T14:23:54.535Z,32.95
2017-08-30T14:26:20.738Z,32.43
2017-08-30T14:28:46.901Z,33.34
2017-08-30T14:31:13.053Z,34.46
2017-08-30T14:33:39.231Z,33.86
2017-08-30T14:36:05.407Z,32.23
2017-08-30T14:38:31.562Z,31.91
2017-08-30T14:40:57.731Z,31.85
2017-08-30T14:43:23.900Z,30.16
2017-08-30T14:45:50.070Z,29.14
2017-08-30T14:48:16.210Z,29.92
2017-08-30T14:50:42.382Z,31.28
2017-08-30T14:53:08.546Z,31.75
2017-08-30T14:55:34.740Z,31.53
2017-08-30T14:58:00.921Z,31.36
2017-08-30T15:00:27.083Z,30.80
2017-08-30T15:02:53.261Z,31.15
2017-08-30T15:05:19.439Z,31.56
2017-08-30T15:07:45.610Z,31.85
2017-08-30T15:10:11.763Z,32.39
2017-08-30T15:12:37.943Z,32.08
2017-08-30T15:15:04.127Z,31.97
2017-08-30T15:17:30.308Z,31.33
2017-08-30T15:19:56.487Z,31.76
2017-08-30T15:22:22.664Z,31.97
2017-08-30T15:24:48.834Z,32.08
2017-08-30T15:27:15.001Z,31.93
2017-08-30T15:29:41.161Z,31.91
2017-08-30T15:32:07.324Z,32.23
2017-08-30T15:34:33.490Z,31.20
2017-08-30T15:36:59.673Z,30.48
2017-08-30T15:39:25.851Z,30.10
2017-08-30T15:41:52.036Z,30.24
2017-08-30T15:44:18.210Z,29.44
2017-08-30T15:46:44.387Z,28.74
2017-08-30T15:49:10.562Z,28.64
2017-08-30T15:51:36.725Z,28.06
2017-08-30T15:54:02.881Z,28.18
2017-08-30T15:56:29.031Z,28.36
2017-08-30T15:58:55.214Z,28.71
2017-08-30T16:01:21.383Z,28.59
2017-08-30T16:03:47.596Z,28.20
2017-08-30T16:06:13.775Z,27.78
2017-08-30T16:08:39.946Z,27.38
2017-08-30T16:11:06.146Z,27.33
2017-08-30T16:13:32.323Z,27.26
2017-08-30T16:15:58.499Z,27.39
2017-08-30T16:18:24.672Z,27.19
2017-08-30T16:20:50.831Z,26.69
2017-08-30T16:23:16.986Z,26.58
2017-08-30T16:25:43.158Z,26.30
2017-08-30T16:28:09.324Z,26.24
2017-08-30T16:30:35.504Z,26.03
2017-08-30T16:33:01.676Z,25.74
2017-08-30T16:35:27.837Z,25.33
2017-08-30T16:37:53.992Z,24.85
2017-08-30T16:40:20.169Z,24.58
2017-08-30T16:42:46.342Z,24.37
2017-08-30T16:45:12.514Z,24.07
2017-08-30T16:47:38.678Z,23.82
2017-08-30T16:50:04.849Z,23.56
2017-08-30T16:52:31.028Z,23.39
2017-08-30T16:54:57.206Z,23.21
2017-08-30T16:57:23.440Z,23.15
2017-08-30T16:59:52.032Z,22.74
2017-08-30T17:02:19.232Z,22.68
2017-08-30T17:04:47.119Z,22.52
2017-08-30T17:07:13.382Z,22.41
2017-08-30T17:09:39.543Z,22.32
2017-08-30T17:12:05.729Z,22.08
2017-08-30T17:14:31.915Z,22.00
2017-08-30T17:16:58.084Z,21.90
2017-08-30T17:19:24.242Z,21.81
2017-08-30T17:21:50.403Z,21.70
2017-08-30T17:24:16.585Z,21.56
2017-08-30T17:26:42.759Z,21.43
2017-08-30T17:29:08.925Z,21.35
2017-08-30T17:31:35.089Z,21.15
2017-08-30T17:34:01.252Z,20.94
2017-08-30T17:36:27.422Z,20.78
2017-08-30T17:38:53.605Z,20.61
2017-08-30T17:41:19.768Z,20.47
2017-08-30T17:43:45.946Z,20.32
2017-08-30T17:46:12.138Z,20.24
2017-08-30T17:48:38.349Z,20.22
2017-08-30T17:51:04.513Z,20.15
2017-08-30T17:53:30.680Z,20.06
2017-08-30T17:55:56.844Z,19.94
2017-08-30T17:58:23.016Z,19.87
2017-08-30T18:00:49.185Z,19.76
2017-08-30T18:03:15.363Z,19.78
2017-08-30T18:05:41.527Z,19.66
2017-08-30T18:08:07.716Z,19.47
2017-08-30T18:10:33.883Z,19.22
2017-08-30T18:13:00.061Z,19.14
2017-08-30T18:15:26.218Z,19.01
2017-08-30T18:17:52.395Z,18.91
2017-08-30T18:20:18.590Z,18.83
2017-08-30T18:22:44.775Z,18.87
2017-08-30T18:25:10.949Z,18.79
2017-08-30T18:27:37.122Z,18.72
2017-08-30T18:30:03.311Z,18.72
2017-08-30T18:32:29.478Z,18.64
2017-08-30T18:34:55.650Z,18.55
2017-08-30T18:37:21.838Z,18.51
2017-08-30T18:39:48.014Z,18.45
2017-08-30T18:42:14.201Z,18.35
2017-08-30T18:44:40.374Z,18.40
2017-08-30T18:47:06.592Z,18.36
2017-08-30T18:49:32.762Z,18.25
2017-08-30T18:51:58.942Z,17.99
2017-08-30T18:54:25.118Z,17.94
2017-08-30T18:56:51.288Z,17.93
2017-08-30T18:59:17.441Z,17.82
2017-08-30T19:01:43.618Z,17.69
2017-08-30T19:04:09.813Z,17.68
2017-08-30T19:06:35.989Z,17.57
2017-08-30T19:09:02.142Z,17.49
2017-08-30T19:11:28.303Z,17.35
2017-08-30T19:13:54.489Z,17.11
2017-08-30T19:16:20.673Z,17.09
2017-08-30T19:18:47.057Z,17.12
2017-08-30T19:21:13.218Z,17.11
2017-08-30T19:23:39.380Z,17.08
2017-08-30T19:26:05.535Z,17.07
2017-08-30T19:28:31.687Z,17.07
2017-08-30T19:30:57.861Z,16.97
2017-08-30T19:33:24.039Z,16.93
2017-08-30T19:35:50.203Z,16.95
2017-08-30T19:38:16.357Z,16.79
2017-08-30T19:40:42.669Z,16.76
2017-08-30T19:43:08.849Z,16.70
2017-08-30T19:45:35.013Z,16.71
2017-08-30T19:48:01.171Z,16.71
2017-08-30T19:50:27.332Z,16.57
2017-08-30T19:52:53.508Z,16.56
2017-08-30T19:55:19.682Z,16.47
2017-08-30T19:57:45.839Z,16.44
2017-08-30T20:00:12.014Z,16.29
2017-08-30T20:02:38.166Z,16.15
2017-08-30T20:05:04.341Z,16.30
2017-08-30T20:07:30.516Z,16.38
2017-08-30T20:09:56.681Z,16.31
2017-08-30T20:12:22.836Z,16.25
2017-08-30T20:14:48.992Z,16.27
2017-08-30T20:17:15.165Z,16.25
2017-08-30T20:19:41.330Z,16.16
2017-08-30T20:22:07.483Z,16.09
2017-08-30T20:24:33.655Z,15.98
2017-08-30T20:26:59.829Z,15.96
2017-08-30T20:29:26.015Z,15.81
2017-08-30T20:31:52.178Z,15.68
2017-08-30T20:34:18.363Z,15.66
2017-08-30T20:36:44.547Z,15.64
2017-08-30T20:39:10.706Z,15.62
2017-08-30T20:41:36.889Z,15.53
2017-08-30T20:44:03.070Z,15.58
2017-08-30T20:46:29.257Z,15.60
2017-08-30T20:48:55.438Z,15.62
2017-08-30T20:51:21.615Z,15.63
2017-08-30T20:53:47.880Z,15.62
2017-08-30T20:56:14.115Z,15.49
2017-08-30T20:58:40.318Z,15.49
2017-08-30T21:01:06.543Z,15.42
2017-08-30T21:03:32.806Z,15.35
2017-08-30T21:05:59.016Z,15.26
2017-08-30T21:08:25.254Z,15.16
2017-08-30T21:10:51.468Z,15.17
2017-08-30T21:13:17.739Z,15.20
2017-08-30T21:15:43.925Z,15.26
2017-08-30T21:18:10.187Z,15.17
2017-08-30T21:20:36.441Z,15.16
2017-08-30T21:23:02.641Z,15.17
2017-08-30T21:25:28.865Z,15.19
2017-08-30T21:27:55.098Z,15.18
2017-08-30T21:30:21.320Z,15.22
2017-08-30T21:32:47.562Z,15.15
2017-08-30T21:35:13.788Z,15.04
2017-08-30T21:37:40.013Z,14.97
2017-08-30T21:40:06.245Z,14.88
2017-08-30T21:42:32.471Z,14.87
2017-08-30T21:44:58.740Z,14.88
2017-08-30T21:47:24.931Z,14.82
2017-08-30T21:49:51.156Z,14.77
2017-08-30T21:52:17.400Z,14.72
2017-08-30T21:54:43.630Z,14.80
2017-08-30T21:57:09.815Z,14.78
2017-08-30T21:59:36.104Z,14.60
2017-08-30T22:02:02.324Z,14.63
2017-08-30T22:04:28.522Z,14.67
2017-08-30T22:06:54.760Z,14.61
2017-08-30T22:09:21.000Z,14.51
2017-08-30T22:11:47.226Z,14.55
2017-08-30T22:14:13.479Z,14.42
2017-08-30T22:16:39.688Z,14.41
2017-08-30T22:19:05.918Z,14.33
2017-08-30T22:21:32.131Z,14.28
2017-08-30T22:23:58.302Z,14.27
2017-08-30T22:26:24.514Z,14.24
2017-08-30T22:28:50.725Z,14.33
2017-08-30T22:31:16.982Z,14.29
2017-08-30T22:33:43.203Z,14.22
2017-08-30T22:36:09.428Z,14.05
2017-08-30T22:38:35.630Z,14.07
2017-08-30T22:41:01.867Z,14.03
2017-08-30T22:43:28.103Z,14.03
2017-08-30T22:45:54.341Z,14.01
2017-08-30T22:48:20.575Z,14.00
2017-08-30T22:50:46.792Z,13.85
2017-08-30T22:53:13.020Z,13.77
2017-08-30T22:55:39.269Z,13.79
2017-08-30T22:58:05.506Z,13.85
2017-08-30T23:00:31.781Z,13.85
2017-08-30T23:02:58.065Z,13.78
2017-08-30T23:05:24.291Z,13.70
2017-08-30T23:07:50.511Z,13.65
2017-08-30T23:10:16.742Z,13.65
2017-08-30T23:12:42.973Z,13.61
2017-08-30T23:15:09.193Z,13.60
2017-08-30T23:17:35.417Z,13.64
2017-08-30T23:20:01.655Z,13.65
2017-08-30T23:22:27.887Z,13.65
2017-08-30T23:24:54.119Z,13.60
2017-08-30T23:27:20.547Z,13.72
2017-08-30T23:29:46.816Z,13.67
2017-08-30T23:32:13.004Z,13.63
2017-08-30T23:34:39.255Z,13.55
2017-08-30T23:37:05.459Z,13.48
2017-08-30T23:39:31.689Z,13.51
2017-08-30T23:41:57.924Z,13.51
2017-08-30T23:44:24.143Z,13.51
2017-08-30T23:46:50.389Z,13.33
2017-08-30T23:49:16.617Z,13.32
2017-08-30T23:51:42.842Z,13.33
2017-08-30T23:54:09.067Z,13.24
2017-08-30T23:56:35.296Z,13.17
2017-08-30T23:59:01.575Z,13.18
